< < Back
Terminal Aerodrome Forecast


Current Version              Previous Versions:   1  2  3  4  5  6  7  8  9  

Terminal Aerodrome Forecast

693
FTUS44 KOHX 020653 AAA
TAFCSV
TAF AMD
KCSV 020653Z 0207/0306 18003KT P6SM VCSH BKN023 BKN070 OVC090
     FM020900 23004KT 4SM -TSRA OVC015CB
     FM021400 23007KT 6SM -SHRA OVC025
      TEMPO 0218/0222 4SM -TSRA BR BKN025CB OVC100
     FM030500 20006KT 4SM -TSRA BR OVC030CB=

Latest METAR

785
SAUS70 KWBC 021400 RRL
MTRCSV
METAR KCSV 021353Z AUTO 00000KT 10SM FEW007 OVC018 20/18 A3003 RMK AO2
LTG DSNT SE AND S RAE35B44E53 TSE1254 SLP152 P0006
T02000183


USA.gov is the U.S. government's official web portal to all federal, state and local government web resources and services.